createdAt,value
2018-03-24T00:01:09.767Z,13.33
2018-03-24T00:03:38.801Z,11.70
2018-03-24T00:06:07.076Z,13.37
2018-03-24T00:08:35.332Z,13.00
2018-03-24T00:11:03.596Z,12.63
2018-03-24T00:13:32.711Z,14.93
2018-03-24T00:16:00.975Z,16.30
2018-03-24T00:18:29.260Z,13.40
2018-03-24T00:20:57.530Z,12.47
2018-03-24T00:23:25.779Z,11.13
2018-03-24T00:25:54.816Z,12.53
2018-03-24T00:28:23.118Z,12.80
2018-03-24T00:30:51.407Z,11.20
2018-03-24T00:33:19.658Z,12.23
2018-03-24T00:35:47.913Z,13.17
2018-03-24T00:38:16.164Z,12.87
2018-03-24T00:40:45.215Z,12.57
2018-03-24T00:43:13.477Z,13.80
2018-03-24T00:45:41.748Z,14.83
2018-03-24T00:48:10.023Z,14.40
2018-03-24T00:50:38.280Z,11.47
2018-03-24T00:53:06.556Z,10.93
2018-03-24T00:55:34.813Z,11.90
2018-03-24T00:58:03.832Z,11.03
2018-03-24T01:00:32.120Z,10.90
2018-03-24T01:03:00.364Z,12.13
2018-03-24T01:05:28.632Z,12.40
2018-03-24T01:07:57.691Z,14.67
2018-03-24T01:10:25.971Z,14.47
2018-03-24T01:12:54.244Z,13.73
2018-03-24T01:15:22.501Z,11.77
2018-03-24T01:17:50.780Z,16.00
2018-03-24T01:20:19.033Z,13.67
2018-03-24T01:22:47.287Z,13.67
2018-03-24T01:25:15.567Z,12.00
2018-03-24T01:27:43.835Z,11.00
2018-03-24T01:30:12.892Z,11.18
2018-03-24T01:32:41.155Z,12.17
2018-03-24T01:35:09.443Z,12.40
2018-03-24T01:37:37.705Z,11.03
2018-03-24T01:40:05.977Z,12.90
2018-03-24T01:42:34.223Z,10.40
2018-03-24T01:45:02.480Z,11.27
2018-03-24T01:47:31.547Z,11.83
2018-03-24T01:49:59.804Z,12.63
2018-03-24T01:52:28.123Z,12.07
2018-03-24T01:54:57.144Z,13.87
2018-03-24T01:57:25.395Z,13.80
2018-03-24T01:59:54.443Z,12.60
2018-03-24T02:02:22.716Z,12.77
2018-03-24T02:04:50.974Z,15.00
2018-03-24T02:07:19.250Z,14.67
2018-03-24T02:09:47.504Z,13.73
2018-03-24T02:12:15.755Z,18.93
2018-03-24T02:14:45.547Z,17.90
2018-03-24T02:17:13.804Z,15.90
2018-03-24T02:19:42.077Z,16.58
2018-03-24T02:22:10.353Z,17.30
2018-03-24T02:27:43.143Z,12.00
2018-03-24T02:30:11.414Z,16.23
2018-03-24T02:32:39.684Z,14.33
2018-03-24T02:35:07.948Z,15.30
2018-03-24T02:37:36.988Z,14.50
2018-03-24T02:40:05.279Z,16.37
2018-03-24T02:42:33.518Z,17.87
2018-03-24T02:45:01.896Z,15.40
2018-03-24T02:47:30.169Z,17.33
2018-03-24T02:49:58.431Z,15.27
2018-03-24T02:52:26.708Z,18.03
2018-03-24T02:54:54.965Z,21.07
2018-03-24T02:57:23.988Z,15.87
2018-03-24T02:59:52.269Z,19.70
2018-03-24T03:02:20.549Z,18.57
2018-03-24T03:04:48.804Z,17.33
2018-03-24T03:07:17.083Z,17.17
2018-03-24T03:09:45.345Z,14.10
2018-03-24T03:12:14.367Z,19.70
2018-03-24T03:14:42.645Z,22.63
2018-03-24T03:17:10.927Z,19.87
2018-03-24T03:19:39.185Z,20.53
2018-03-24T03:22:07.479Z,15.50
2018-03-24T03:24:35.737Z,16.37
2018-03-24T03:27:04.115Z,13.17
2018-03-24T03:29:32.369Z,13.10
2018-03-24T03:32:20.184Z,17.63
2018-03-24T03:34:48.455Z,15.53
2018-03-24T03:37:17.500Z,16.37
2018-03-24T03:39:45.776Z,12.37
2018-03-24T03:42:14.020Z,11.87
2018-03-24T03:44:43.091Z,18.50
2018-03-24T03:47:11.369Z,15.83
2018-03-24T03:49:39.625Z,15.63
2018-03-24T03:52:07.880Z,24.63
2018-03-24T03:54:36.162Z,16.73
2018-03-24T03:57:04.419Z,11.70
2018-03-24T03:59:32.680Z,15.70
2018-03-24T04:02:01.730Z,16.00
2018-03-24T04:04:29.990Z,12.77
2018-03-24T04:06:58.237Z,19.10
2018-03-24T04:09:26.633Z,17.40
2018-03-24T04:11:54.921Z,14.53
2018-03-24T04:14:23.168Z,16.70
2018-03-24T04:16:51.443Z,21.10
2018-03-24T04:19:19.703Z,16.23
2018-03-24T04:21:48.727Z,15.53
2018-03-24T04:24:17.003Z,25.67
2018-03-24T04:26:45.260Z,16.60
2018-03-24T04:29:13.553Z,18.90
2018-03-24T04:31:41.816Z,22.00
2018-03-24T04:34:10.122Z,19.43
2018-03-24T04:36:38.404Z,23.13
2018-03-24T04:39:06.660Z,15.70
2018-03-24T04:41:34.920Z,13.67
2018-03-24T04:44:03.192Z,14.77
2018-03-24T04:46:31.445Z,16.87
2018-03-24T04:48:59.728Z,15.30
2018-03-24T04:51:28.757Z,16.47
2018-03-24T04:53:57.021Z,19.40
2018-03-24T04:56:25.292Z,16.90
2018-03-24T04:58:53.602Z,14.70
2018-03-24T05:01:21.965Z,16.93
2018-03-24T05:03:50.271Z,14.77
2018-03-24T05:06:18.539Z,14.13
2018-03-24T05:08:46.789Z,14.37
2018-03-24T05:11:15.064Z,14.90
2018-03-24T05:13:43.329Z,13.83
2018-03-24T05:16:12.352Z,15.00
2018-03-24T05:18:40.614Z,14.77
2018-03-24T05:21:08.885Z,12.80
2018-03-24T05:23:37.144Z,11.63
2018-03-24T05:26:06.176Z,13.80
2018-03-24T05:28:34.464Z,13.47
2018-03-24T05:31:02.720Z,15.07
2018-03-24T05:33:30.992Z,13.70
2018-03-24T05:35:59.365Z,12.50
2018-03-24T05:38:27.617Z,12.90
2018-03-24T05:40:55.890Z,11.90
2018-03-24T05:43:24.943Z,13.27
2018-03-24T05:45:53.197Z,13.50
2018-03-24T05:48:21.443Z,14.73
2018-03-24T05:50:49.717Z,12.80
2018-03-24T05:53:18.831Z,10.50
2018-03-24T05:55:47.093Z,11.30
2018-03-24T05:58:15.359Z,10.43
2018-03-24T06:00:44.386Z,12.90
2018-03-24T06:03:12.672Z,10.17
2018-03-24T06:05:40.931Z,11.60
2018-03-24T06:08:09.195Z,13.20
2018-03-24T06:10:37.511Z,13.90
2018-03-24T06:13:05.724Z,11.90
2018-03-24T06:15:34.875Z,11.57
2018-03-24T06:18:03.127Z,11.63
2018-03-24T06:20:31.397Z,11.23
2018-03-24T06:22:59.672Z,10.60
2018-03-24T06:25:27.927Z,12.43
2018-03-24T06:27:56.943Z,12.37
2018-03-24T06:43:53.671Z,10.83
2018-03-24T06:46:22.062Z,11.23
2018-03-24T06:48:50.348Z,11.60
2018-03-24T06:51:18.613Z,11.60
2018-03-24T06:53:46.871Z,12.57
2018-03-24T06:56:15.128Z,14.03
2018-03-24T06:58:44.160Z,11.90
2018-03-24T07:01:12.427Z,11.83
2018-03-24T07:03:40.688Z,12.57
2018-03-24T07:06:09.724Z,12.17
2018-03-24T07:08:37.982Z,11.70
2018-03-24T07:11:06.244Z,11.80
2018-03-24T07:13:34.524Z,12.03
2018-03-24T07:16:02.786Z,12.20
2018-03-24T07:18:31.802Z,12.33
2018-03-24T07:21:00.120Z,12.03
2018-03-24T07:23:28.377Z,11.00
2018-03-24T07:25:56.636Z,11.05
2018-03-24T07:28:24.900Z,10.63
2018-03-24T07:30:53.174Z,11.30
2018-03-24T07:33:21.504Z,11.30
2018-03-24T07:35:49.838Z,13.55
2018-03-24T07:38:18.322Z,11.77
2018-03-24T07:40:46.667Z,12.90
2018-03-24T07:43:14.948Z,13.17
2018-03-24T07:45:43.977Z,13.93
2018-03-24T07:48:12.223Z,13.73
2018-03-24T07:50:40.516Z,12.87
2018-03-24T07:53:08.776Z,12.87
2018-03-24T07:55:37.051Z,12.03
2018-03-24T07:58:05.331Z,11.60
2018-03-24T08:00:33.604Z,12.03
2018-03-24T08:03:02.635Z,14.97
2018-03-24T08:05:30.906Z,13.60
2018-03-24T08:07:59.164Z,14.93
2018-03-24T08:10:27.432Z,12.20
2018-03-24T08:12:55.742Z,13.20
2018-03-24T08:15:24.103Z,14.03
2018-03-24T08:17:52.460Z,13.87
2018-03-24T08:20:20.794Z,13.87
2018-03-24T08:22:49.102Z,14.50
2018-03-24T08:25:17.434Z,14.43
2018-03-24T08:27:45.777Z,13.90
2018-03-24T08:30:14.130Z,13.73
2018-03-24T08:32:42.407Z,14.70
2018-03-24T08:35:11.442Z,14.77
2018-03-24T08:37:39.720Z,15.00
2018-03-24T08:40:07.984Z,15.93
2018-03-24T08:42:36.274Z,13.50
2018-03-24T08:45:04.528Z,13.60
2018-03-24T08:47:32.782Z,14.73
2018-03-24T08:50:01.857Z,14.07
2018-03-24T08:52:30.084Z,13.33
2018-03-24T08:54:58.367Z,13.50
2018-03-24T08:57:26.903Z,13.73
2018-03-24T08:59:55.179Z,14.95
2018-03-24T09:02:24.215Z,14.87
2018-03-24T09:04:52.509Z,14.70
2018-03-24T09:07:20.772Z,15.47
2018-03-24T09:09:49.065Z,14.50
2018-03-24T09:12:17.344Z,14.10
2018-03-24T09:14:45.620Z,15.90
2018-03-24T09:17:13.876Z,14.50
2018-03-24T09:19:42.142Z,14.63
2018-03-24T09:22:10.473Z,15.40
2018-03-24T09:24:38.683Z,12.33
2018-03-24T09:27:06.968Z,15.00
2018-03-24T09:29:35.253Z,13.07
2018-03-24T09:32:03.525Z,13.27
2018-03-24T09:34:31.793Z,13.73
2018-03-24T09:37:00.101Z,14.77
2018-03-24T09:39:28.443Z,14.48
2018-03-24T09:41:56.712Z,11.90
2018-03-24T09:44:25.763Z,12.17
2018-03-24T09:46:54.031Z,19.60
2018-03-24T09:49:22.320Z,14.27
2018-03-24T09:51:50.595Z,14.30
2018-03-24T09:54:18.881Z,13.30
2018-03-24T09:56:47.155Z,14.87
2018-03-24T09:59:15.470Z,13.10
2018-03-24T10:01:43.720Z,13.70
2018-03-24T10:04:12.773Z,12.77
2018-03-24T10:06:41.040Z,12.27
2018-03-24T10:09:09.333Z,12.50
2018-03-24T10:11:37.620Z,11.87
2018-03-24T10:14:05.880Z,13.40
2018-03-24T10:16:34.200Z,12.27
2018-03-24T10:19:03.253Z,11.83
2018-03-24T10:25:06.779Z,10.67
2018-03-24T10:27:35.060Z,11.87
2018-03-24T10:30:04.131Z,10.07
2018-03-24T10:32:34.160Z,11.40
2018-03-24T10:35:07.344Z,12.60
2018-03-24T10:37:41.285Z,10.50
2018-03-24T10:40:09.553Z,10.70
2018-03-24T10:42:37.819Z,11.33
2018-03-24T10:45:06.114Z,11.75
2018-03-24T10:47:34.380Z,11.00
2018-03-24T10:50:02.648Z,9.87
2018-03-24T10:52:30.933Z,10.70
2018-03-24T10:54:59.290Z,10.77
2018-03-24T10:57:27.544Z,10.00
2018-03-24T10:59:55.828Z,9.20
2018-03-24T11:02:24.104Z,8.90
2018-03-24T11:04:52.364Z,7.80
2018-03-24T11:07:20.657Z,9.00
2018-03-24T11:09:48.925Z,8.70
2018-03-24T11:12:17.200Z,9.53
2018-03-24T11:14:45.485Z,7.90
2018-03-24T11:17:13.757Z,10.27
2018-03-24T11:19:42.016Z,9.20
2018-03-24T11:22:10.305Z,10.70
2018-03-24T11:24:38.563Z,9.00
2018-03-24T11:27:07.608Z,9.80
2018-03-24T11:29:35.888Z,8.40
2018-03-24T11:32:04.149Z,9.07
2018-03-24T11:34:32.524Z,8.67
2018-03-24T11:37:00.819Z,7.00
2018-03-24T11:39:29.171Z,6.10
2018-03-24T11:41:57.432Z,6.60
2018-03-24T11:44:25.723Z,5.80
2018-03-24T11:46:53.975Z,7.27
2018-03-24T11:49:22.271Z,6.03
2018-03-24T11:51:50.536Z,6.20
2018-03-24T11:54:36.830Z,6.37
2018-03-24T11:57:05.101Z,6.83
2018-03-24T11:59:34.139Z,7.67
2018-03-24T12:02:02.415Z,7.63
2018-03-24T12:04:30.675Z,7.37
2018-03-24T12:06:58.934Z,7.17
2018-03-24T12:09:27.223Z,9.60
2018-03-24T12:11:55.495Z,9.20
2018-03-24T12:14:23.795Z,9.40
2018-03-24T12:16:52.076Z,9.33
2018-03-24T12:19:20.339Z,9.30
2018-03-24T12:21:48.608Z,10.53
2018-03-24T12:24:16.880Z,8.93
2018-03-24T12:26:45.153Z,8.23
2018-03-24T12:29:13.420Z,8.90
2018-03-24T12:31:41.685Z,8.27
2018-03-24T12:34:10.773Z,9.30
2018-03-24T12:36:39.797Z,8.20
2018-03-24T12:39:08.072Z,8.90
2018-03-24T12:41:36.353Z,9.07
2018-03-24T12:44:04.617Z,8.67
2018-03-24T12:46:32.897Z,8.33
2018-03-24T12:49:02.020Z,7.25
2018-03-24T12:51:30.374Z,7.40
2018-03-24T12:53:58.640Z,6.37
2018-03-24T12:56:26.917Z,5.47
2018-03-24T12:58:55.171Z,5.90
2018-03-24T13:01:24.212Z,6.40
2018-03-24T13:03:52.503Z,6.33
2018-03-24T13:06:20.766Z,6.85
2018-03-24T13:08:49.019Z,6.00
2018-03-24T13:11:17.308Z,6.47
2018-03-24T13:13:45.564Z,6.97
2018-03-24T13:16:13.833Z,7.50
2018-03-24T13:18:43.007Z,7.20
2018-03-24T13:21:11.285Z,6.80
2018-03-24T13:23:40.309Z,7.40
2018-03-24T13:26:08.588Z,6.90
2018-03-24T13:28:36.843Z,8.50
2018-03-24T13:31:05.878Z,7.37
2018-03-24T13:33:34.151Z,7.20
2018-03-24T13:36:02.424Z,6.60
2018-03-24T13:38:30.679Z,7.13
2018-03-24T13:40:58.966Z,6.80
2018-03-24T13:43:27.228Z,6.70
2018-03-24T13:45:55.492Z,7.40
2018-03-24T13:48:24.543Z,6.83
2018-03-24T13:50:52.805Z,7.20
2018-03-24T13:53:21.164Z,7.00
2018-03-24T13:55:49.448Z,7.60
2018-03-24T13:58:17.712Z,6.43
2018-03-24T14:00:45.979Z,7.10
2018-03-24T14:03:14.255Z,7.80
2018-03-24T14:05:42.520Z,8.23
2018-03-24T14:08:11.544Z,7.43
2018-03-24T14:10:39.836Z,7.33
2018-03-24T14:13:08.096Z,8.00
2018-03-24T14:15:36.373Z,7.70
2018-03-24T14:18:04.647Z,7.90
2018-03-24T14:20:32.927Z,7.68
2018-03-24T14:23:01.200Z,7.53
2018-03-24T14:25:29.476Z,6.83
2018-03-24T14:27:57.760Z,7.87
2018-03-24T14:30:26.040Z,7.30
2018-03-24T14:32:54.319Z,7.40
2018-03-24T14:35:22.614Z,8.30
2018-03-24T14:37:50.883Z,7.80
2018-03-24T14:40:19.157Z,7.83
2018-03-24T14:42:47.424Z,7.87
2018-03-24T14:45:15.691Z,8.10
2018-03-24T14:47:43.963Z,10.27
2018-03-24T14:50:12.246Z,8.63
2018-03-24T14:52:40.499Z,7.40
2018-03-24T14:55:08.794Z,7.27
2018-03-24T14:57:37.049Z,7.60
2018-03-24T15:00:05.307Z,7.90
2018-03-24T15:02:34.354Z,7.13
2018-03-24T15:05:02.624Z,7.27
2018-03-24T15:07:30.902Z,7.73
2018-03-24T15:09:59.176Z,6.60
2018-03-24T15:12:27.462Z,6.43
2018-03-24T15:14:55.723Z,8.13
2018-03-24T15:17:23.993Z,7.20
2018-03-24T15:19:52.256Z,7.37
2018-03-24T15:22:20.522Z,6.73
2018-03-24T15:24:48.795Z,6.20
2018-03-24T15:27:17.849Z,7.40
2018-03-24T15:30:03.880Z,6.63
2018-03-24T15:32:50.615Z,6.93
2018-03-24T15:35:46.512Z,7.17
2018-03-24T15:38:15.543Z,6.50
2018-03-24T15:40:43.814Z,6.03
2018-03-24T15:43:12.153Z,6.20
2018-03-24T15:45:40.391Z,6.00
2018-03-24T15:48:08.743Z,7.00
2018-03-24T15:50:37.044Z,6.73
2018-03-24T15:53:05.295Z,6.83
2018-03-24T15:55:33.647Z,7.03
2018-03-24T15:58:01.973Z,6.50
2018-03-24T16:00:30.249Z,6.10
2018-03-24T16:02:58.510Z,6.80
2018-03-24T16:05:26.804Z,6.90
2018-03-24T16:07:55.060Z,6.70
2018-03-24T16:10:23.360Z,5.73
2018-03-24T16:12:51.732Z,7.00
2018-03-24T16:15:20.014Z,6.80
2018-03-24T16:17:48.273Z,6.80
2018-03-24T16:20:16.635Z,6.40
2018-03-24T16:22:44.940Z,6.43
2018-03-24T16:25:13.196Z,5.47
2018-03-24T16:27:41.475Z,6.90
2018-03-24T16:30:09.739Z,6.27
2018-03-24T16:32:37.999Z,5.93
2018-03-24T16:35:06.278Z,5.90
2018-03-24T16:37:34.556Z,6.30
2018-03-24T16:40:02.816Z,6.30
2018-03-24T16:42:31.864Z,6.40
2018-03-24T16:45:00.136Z,6.50
2018-03-24T16:47:28.442Z,6.20
2018-03-24T16:49:56.720Z,6.03
2018-03-24T16:52:24.988Z,5.23
2018-03-24T16:54:53.320Z,6.27
2018-03-24T16:57:21.597Z,6.37
2018-03-24T16:59:49.860Z,6.90
2018-03-24T17:02:18.119Z,6.30
2018-03-24T17:04:47.194Z,6.40
2018-03-24T17:07:15.468Z,6.43
2018-03-24T17:09:43.737Z,6.30
2018-03-24T17:12:12.016Z,5.60
2018-03-24T17:14:40.318Z,6.27
2018-03-24T17:17:09.362Z,6.30
2018-03-24T17:19:37.657Z,6.60
2018-03-24T17:22:05.921Z,6.47
2018-03-24T17:24:34.188Z,5.27
2018-03-24T17:27:02.469Z,5.40
2018-03-24T17:29:30.745Z,5.57
2018-03-24T17:31:59.020Z,6.60
2018-03-24T17:34:27.315Z,6.00
2018-03-24T17:36:55.578Z,5.50
2018-03-24T17:39:23.849Z,5.00
2018-03-24T17:41:52.131Z,6.17
2018-03-24T17:44:20.414Z,5.33
2018-03-24T17:46:48.659Z,5.77
2018-03-24T17:49:16.943Z,7.23
2018-03-24T17:51:45.286Z,4.90
2018-03-24T17:54:14.327Z,4.80
2018-03-24T17:56:42.632Z,4.90
2018-03-24T17:59:10.885Z,4.90
2018-03-24T18:01:39.160Z,5.40
2018-03-24T18:04:07.440Z,5.30
2018-03-24T18:06:35.700Z,6.10
2018-03-24T18:09:03.957Z,5.73
2018-03-24T18:11:32.241Z,6.43
2018-03-24T18:14:00.529Z,5.83
2018-03-24T18:16:28.896Z,5.70
2018-03-24T18:18:57.194Z,6.13
2018-03-24T18:21:25.535Z,5.60
2018-03-24T18:23:53.810Z,6.40
2018-03-24T18:26:22.608Z,8.10
2018-03-24T18:28:50.940Z,7.93
2018-03-24T18:31:19.198Z,8.00
2018-03-24T18:33:47.489Z,7.80
2018-03-24T18:36:15.806Z,6.23
2018-03-24T18:38:44.127Z,6.30
2018-03-24T18:41:12.488Z,5.80
2018-03-24T18:43:40.927Z,6.10
2018-03-24T18:46:09.352Z,5.17
2018-03-24T18:48:38.017Z,6.20
2018-03-24T18:51:06.349Z,6.80
2018-03-24T18:53:36.052Z,6.70
2018-03-24T18:56:04.742Z,6.30
2018-03-24T18:58:33.355Z,6.77
2018-03-24T19:01:03.252Z,5.90
2018-03-24T19:03:31.727Z,6.47
2018-03-24T19:06:01.651Z,5.33
2018-03-24T19:08:31.306Z,5.97
2018-03-24T19:11:02.467Z,5.40
2018-03-24T19:13:32.608Z,5.50
2018-03-24T19:16:02.525Z,5.10
2018-03-24T19:18:32.287Z,5.70
2018-03-24T19:21:02.883Z,5.30
2018-03-24T19:23:32.292Z,6.30
2018-03-24T19:26:02.262Z,5.30
2018-03-24T19:28:32.079Z,5.90
2018-03-24T19:31:01.775Z,5.72
2018-03-24T19:33:31.703Z,6.10
2018-03-24T19:36:01.516Z,6.90
2018-03-24T19:38:31.381Z,5.73
2018-03-24T19:41:01.555Z,5.60
2018-03-24T19:43:31.435Z,6.70
2018-03-24T19:46:01.114Z,5.93
2018-03-24T19:48:32.051Z,5.70
2018-03-24T19:51:01.886Z,6.47
2018-03-24T19:53:31.731Z,5.93
2018-03-24T19:56:01.823Z,6.00
2018-03-24T19:58:31.727Z,6.77
2018-03-24T20:01:02.469Z,6.10
2018-03-24T20:03:32.381Z,5.80
2018-03-24T20:06:02.172Z,5.67
2018-03-24T20:08:32.909Z,6.33
2018-03-24T20:11:02.779Z,5.70
2018-03-24T20:13:32.663Z,5.90
2018-03-24T20:16:03.292Z,6.57
2018-03-24T20:18:33.839Z,6.60
2018-03-24T20:21:03.542Z,7.07
2018-03-24T20:23:33.284Z,6.33
2018-03-24T20:26:03.235Z,7.63
2018-03-24T20:28:33.918Z,5.77
2018-03-24T20:31:03.678Z,5.73
2018-03-24T20:33:33.568Z,5.10
2018-03-24T20:36:03.433Z,5.30
2018-03-24T20:38:33.456Z,5.60
2018-03-24T20:41:03.557Z,5.23
2018-03-24T20:43:34.498Z,5.13
2018-03-24T20:46:05.110Z,5.30
2018-03-24T20:48:35.167Z,4.80
2018-03-24T20:51:05.193Z,5.15
2018-03-24T20:53:34.569Z,5.30
2018-03-24T20:56:03.770Z,5.17
2018-03-24T20:58:33.033Z,6.23
2018-03-24T21:01:02.432Z,5.30
2018-03-24T21:03:32.280Z,6.03
2018-03-24T21:06:02.142Z,5.73
2018-03-24T21:08:32.028Z,5.80
2018-03-24T21:11:01.913Z,5.70
2018-03-24T21:13:32.502Z,5.90
2018-03-24T21:16:02.448Z,5.73
2018-03-24T21:18:33.105Z,6.23
2018-03-24T21:21:03.389Z,5.70
2018-03-24T21:23:33.317Z,4.80
2018-03-24T21:26:04.053Z,6.10
2018-03-24T21:28:34.689Z,6.07
2018-03-24T21:31:05.597Z,5.40
2018-03-24T21:33:35.394Z,5.00
2018-03-24T21:36:05.383Z,5.00
2018-03-24T21:38:35.896Z,5.43
2018-03-24T21:41:06.446Z,6.37
2018-03-24T21:43:36.260Z,6.17
2018-03-24T21:46:06.121Z,5.00
2018-03-24T21:48:35.937Z,5.90
2018-03-24T21:51:06.469Z,5.27
2018-03-24T21:53:36.336Z,5.10
2018-03-24T21:56:06.341Z,5.00
2018-03-24T21:58:35.999Z,5.43
2018-03-24T22:01:05.909Z,5.63
2018-03-24T22:03:35.907Z,5.53
2018-03-24T22:06:05.946Z,6.10
2018-03-24T22:08:35.745Z,6.70
2018-03-24T22:11:05.568Z,6.40
2018-03-24T22:13:35.176Z,5.77
2018-03-24T22:16:05.300Z,6.00
2018-03-24T22:18:35.444Z,5.70
2018-03-24T22:21:06.159Z,6.67
2018-03-24T22:23:36.670Z,6.50
2018-03-24T22:26:05.130Z,6.57
2018-03-24T22:28:34.200Z,6.17
2018-03-24T22:31:02.569Z,6.03
2018-03-24T22:33:30.852Z,5.60
2018-03-24T22:35:59.111Z,5.10
2018-03-24T22:38:27.401Z,5.90
2018-03-24T22:40:55.715Z,5.40
2018-03-24T22:43:23.975Z,5.20
2018-03-24T22:45:52.244Z,6.23
2018-03-24T22:48:20.503Z,5.77
2018-03-24T22:50:48.804Z,5.93
2018-03-24T22:53:17.051Z,6.70
2018-03-24T22:55:45.306Z,5.67
2018-03-24T22:58:13.596Z,5.43
2018-03-24T23:00:41.861Z,5.70
2018-03-24T23:03:10.125Z,5.90
2018-03-24T23:05:39.144Z,6.50
2018-03-24T23:08:07.430Z,7.03
2018-03-24T23:10:35.694Z,5.17
2018-03-24T23:13:03.972Z,6.87
2018-03-24T23:15:32.254Z,7.17
2018-03-24T23:18:00.553Z,6.00
2018-03-24T23:20:28.828Z,6.07
2018-03-24T23:22:57.092Z,5.40
2018-03-24T23:25:25.363Z,6.70
2018-03-24T23:27:54.200Z,5.57
2018-03-24T23:30:22.447Z,6.40
2018-03-24T23:32:50.712Z,7.03
2018-03-24T23:35:18.965Z,6.10
2018-03-24T23:37:47.232Z,6.57
2018-03-24T23:40:15.488Z,5.30
2018-03-24T23:42:44.508Z,6.90
2018-03-24T23:45:12.776Z,7.33
2018-03-24T23:47:41.024Z,6.10
2018-03-24T23:50:09.291Z,7.20
2018-03-24T23:52:37.564Z,6.30
2018-03-24T23:55:05.823Z,5.73
2018-03-24T23:57:34.152Z,6.50
